Data for 04/04/2008

Time Sea-Level Adjusted Pressure Absolute Pressure Temperature Relative Humidity Dew Point   
(mb) (inHg) (mb) (inHg) (C) (F) (%) (C) (F)
00:05 1018 30.06 847 25.01 3.2 37.7 39 -9.6 14.8
00:10 1018 30.06 847 25.01 3.2 37.8 39 -9.3 15.3
00:15 1018 30.06 847 25.01 3 37.5 41 -9.1 15.6
00:20 1018 30.06 847 25.01 2.9 37.2 41 -9 15.8
00:25 1018 30.06 847 25.01 2.8 37.1 41 -9.1 15.7
00:30 1018 30.06 847 25.01 3 37.4 39 -9.7 14.6
00:35 1018 30.06 847 25.01 3.5 38.3 37 -9.8 14.4
00:40 1018 30.06 847 25.01 3.7 38.7 36 -10.1 13.7
00:45 1018 30.06 847 25.01 3.8 38.9 37 -9.7 14.6
00:50 1018 30.06 847 25.01 3.7 38.6 37 -9.9 14.2
00:55 1018 30.06 847 25.01 3.6 38.4 38 -9.6 14.6
01:00 1018 30.06 847 25.01 3.4 38.1 39 -9.4 15.2
01:05 1018 30.06 847 25.01 3.2 37.8 39 -9.5 15
01:10 1017 30.03 847 25.01 3.1 37.5 40 -9.3 15.3
01:15 1017 30.03 847 25.01 2.7 36.8 42 -8.9 16
01:20 1017 30.03 847 25.01 2.4 36.2 43 -9 15.9
01:25 1017 30.03 847 25.01 2.3 36.1 44 -8.8 16.1
01:30 1017 30.03 847 25.01 2.3 36.1 43 -9.1 15.6
01:35 1017 30.03 847 25.01 2.8 37.1 38 -10.1 13.9
01:40 1017 30.03 847 25.01 3.5 38.3 35 -10.4 13.2
01:45 1017 30.03 847 25.01 3.7 38.7 35 -10.3 13.4
01:50 1017 30.03 847 25.01 3.8 38.9 35 -10.4 13.4
01:55 1017 30.03 847 25.01 3.8 38.9 35 -10.2 13.6
02:00 1017 30.03 847 25.01 3.7 38.6 36 -10 14
02:05 1018 30.06 847 25.01 3.5 38.4 37 -9.7 14.6
02:10 1018 30.06 847 25.01 3.3 37.9 38 -9.6 14.7
02:15 1018 30.06 847 25.01 3.1 37.5 39 -9.7 14.6
02:20 1017 30.03 847 25.01 3.1 37.5 38 -9.8 14.3
02:25 1017 30.03 847 25.01 3 37.4 38 -9.8 14.3
02:30 1017 30.03 847 25.01 3 37.5 38 -9.8 14.3
02:35 1017 30.03 847 25.01 3.1 37.6 39 -9.6 14.8
02:40 1017 30.03 847 25.01 3.1 37.5 39 -9.5 15
02:45 1017 30.03 847 25.01 3 37.4 40 -9.4 15.1
02:50 1017 30.03 847 25.01 2.9 37.3 40 -9.4 15
02:55 1017 30.03 847 25.01 3 37.4 39 -9.5 14.9
03:00 1017 30.03 846 24.98 3 37.4 40 -9.4 15.1
03:05 1017 30.03 846 24.98 3 37.3 39 -9.5 14.8
03:10 1017 30.03 846 24.98 2.9 37.2 40 -9.4 15.1
03:15 1017 30.03 846 24.98 2.8 37 41 -9.3 15.2
03:20 1017 30.03 846 24.98 2.7 36.8 41 -9.3 15.3
03:25 1017 30.03 846 24.98 2.5 36.5 42 -9.1 15.6
03:30 1017 30.03 846 24.98 2.2 35.9 44 -8.9 15.9
03:35 1017 30.03 846 24.98 2.1 35.8 43 -9.2 15.5
03:40 1017 30.03 846 24.98 2.3 36.1 43 -9.2 15.4
03:45 1017 30.03 846 24.98 2.6 36.7 41 -9.3 15.2
03:50 1017 30.03 846 24.98 2.6 36.6 45 -8.2 17.2
03:55 1017 30.03 846 24.98 1.8 35.3 48 -8 17.5
04:00 1017 30.03 846 24.98 1 33.8 50 -8.2 17.2
04:05 1017 30.03 846 24.98 0.8 33.4 51 -8.4 16.9
04:10 1017 30.03 846 24.98 0.7 33.2 52 -8.1 17.4
04:15 1017 30.03 846 24.98 0.7 33.2 51 -8.4 16.8
04:20 1017 30.03 846 24.98 0.9 33.5 50 -8.4 16.8
04:25 1017 30.03 846 24.98 0.9 33.7 51 -8.1 17.4
04:30 1017 30.03 846 24.98 0.7 33.3 52 -8.1 17.4
04:35 1017 30.03 846 24.98 0.5 32.9 51 -8.5 16.6
04:40 1017 30.03 846 24.98 0.5 32.9 51 -8.6 16.5
04:45 1017 30.03 846 24.98 0.5 32.9 52 -8.3 17
04:50 1017 30.03 846 24.98 0 32.1 52 -8.6 16.4
04:55 1017 30.03 846 24.98 -0.3 31.5 55 -8.3 17
05:00 1017 30.03 846 24.98 -0.6 30.9 55 -8.5 16.6
05:05 1017 30.03 846 24.98 -0.6 30.9 54 -8.8 16.2
05:10 1017 30.03 846 24.98 -0.1 31.8 52 -8.8 16.2
05:15 1017 30.03 846 24.98 -0.2 31.6 54 -8.6 16.6
05:20 1017 30.03 846 24.98 -0.5 31.1 54 -8.7 16.3
05:25 1017 30.03 846 24.98 -0.5 31.1 54 -8.7 16.4
05:30 1017 30.03 846 24.98 -0.6 30.9 53 -9 15.8
05:35 1017 30.03 846 24.98 -0 32 51 -8.9 16
05:40 1017 30.03 846 24.98 0 32.1 51 -8.9 16
05:45 1017 30.03 846 24.98 -0 31.9 52 -8.9 16.1
05:50 1017 30.03 846 24.98 -0 32 51 -9 15.8
05:55 1017 30.03 846 24.98 -0.2 31.7 51 -9.1 15.6
06:00 1017 30.03 846 24.98 -0.6 31 52 -9.3 15.3
06:05 1017 30.03 846 24.98 -0.6 30.9 52 -9.3 15.3
06:10 1017 30.03 846 24.98 -0.1 31.7 50 -9.4 15.1
06:15 1017 30.03 846 24.98 -0.2 31.6 51 -9.3 15.3
06:20 1017 30.03 846 24.98 -0.5 31.2 51 -9.5 14.9
06:25 1017 30.03 846 24.98 -0.5 31.1 50 -9.8 14.4
06:30 1017 30.03 846 24.98 -0.4 31.2 49 -9.8 14.4
06:35 1017 30.03 846 24.98 -0.6 31 50 -9.8 14.3
06:40 1017 30.03 846 24.98 -0.6 31 49 -10 14.1
06:45 1017 30.03 846 24.98 -0.7 30.8 50 -9.9 14.2
06:50 1017 30.03 846 24.98 -0.9 30.3 51 -9.9 14.2
06:55 1017 30.03 846 24.98 -0.9 30.4 51 -9.8 14.3
07:00 1017 30.03 846 24.98 -0.9 30.4 51 -9.9 14.3
07:05 1017 30.03 846 24.98 -0.9 30.4 50 -9.9 14.2
07:10 1017 30.03 846 24.98 -0.8 30.6 50 -9.9 14.3
07:15 1017 30.03 846 24.98 -0.6 30.8 50 -9.9 14.2
07:20 1017 30.03 846 24.98 -0.5 31.1 50 -9.7 14.6
07:25 1017 30.03 846 24.98 -0.6 31 50 -9.7 14.5
07:30 1017 30.03 846 24.98 -0.6 31 50 -9.8 14.4
07:35 1017 30.03 846 24.98 -0.7 30.7 50 -9.9 14.2
07:40 1017 30.03 846 24.98 -0.8 30.6 50 -9.9 14.1
07:45 1017 30.03 846 24.98 -0.8 30.5 51 -9.7 14.5
07:50 1017 30.03 846 24.98 -0.9 30.3 51 -9.7 14.5
07:55 1017 30.03 846 24.98 -0.8 30.5 51 -9.6 14.7
08:00 1016 30 846 24.98 -0.6 30.9 52 -9.3 15.3
08:05 1016 30 846 24.98 -0.6 30.9 52 -9.2 15.4
08:10 1016 30 846 24.98 -0.4 31.4 52 -9.1 15.6
08:15 1016 30 846 24.98 -0.1 31.8 52 -8.9 16.1
08:20 1016 30 846 24.98 0.3 32.5 52 -8.5 16.7
08:25 1016 30 846 24.98 0.5 33 51 -8.5 16.6
08:30 1016 30 846 24.98 0.8 33.4 50 -8.6 16.5
08:35 1016 30 846 24.98 1 33.8 49 -8.6 16.6
08:40 1016 30 845 24.95 1.4 34.5 47 -8.8 16.1
08:45 1016 30 845 24.95 1.6 34.9 46 -8.9 15.9
08:50 1016 30 845 24.95 2 35.6 43 -9.2 15.5
08:55 1016 30 845 24.95 2.4 36.2 42 -9.3 15.3
09:00 1016 30 845 24.95 3.1 37.6 40 -9.2 15.4
09:05 1016 30 845 24.95 3.4 38.2 39 -9.3 15.2
09:10 1016 30 845 24.95 3.5 38.3 38 -9.6 14.7
09:15 1016 30 845 24.95 3.4 38.1 42 -8.4 16.9
09:20 1016 30 845 24.95 3.9 38.9 41 -8.3 17.1
09:25 1016 30 845 24.95 3.8 38.8 41 -8.2 17.2
09:30 1016 30 845 24.95 4.1 39.4 38 -9 15.8
09:35 1016 30 845 24.95 4.2 39.5 35 -9.8 14.4
09:40 1016 30 845 24.95 5 40.9 34 -9.6 14.7
09:45 1016 30 845 24.95 5.2 41.4 33 -9.6 14.7
09:50 1016 30 845 24.95 5.2 41.4 34 -9.4 15
09:55 1016 30 845 24.95 5.9 42.7 32 -9.4 15.1
10:00 1016 30 845 24.95 6.7 44 29 -10 14
10:05 1016 30 845 24.95 6.5 43.7 30 -9.9 14.2
10:10 1016 30 845 24.95 6.3 43.3 29 -10.3 13.4
10:15 1016 30 845 24.95 6.2 43.2 29 -10.4 13.2
10:20 1016 30 845 24.95 6.7 44 30 -9.9 14.2
10:25 1015 29.97 845 24.95 7.6 45.6 28 -9.8 14.4
10:30 1015 29.97 845 24.95 7.9 46.2 28 -9.4 15.1
10:35 1015 29.97 845 24.95 7.8 46 28 -9.8 14.3
10:40 1015 29.97 844 24.92 7.4 45.4 28 -10.1 13.9
10:45 1015 29.97 844 24.92 7.9 46.2 28 -9.6 14.7
10:50 1015 29.97 844 24.92 8.2 46.8 26 -10 14
10:55 1015 29.97 844 24.92 7.9 46.2 26 -10.4 13.3
11:00 1015 29.97 844 24.92 6.7 44.1 28 -10.6 12.8
11:05 1015 29.97 844 24.92 6.9 44.5 26 -11.1 12.1
11:10 1015 29.97 844 24.92 6.9 44.4 28 -10.2 13.6
11:15 1015 29.97 844 24.92 8.1 46.6 27 -9.8 14.3
11:20 1015 29.97 844 24.92 9.1 48.4 26 -9.6 14.8
11:25 1015 29.97 844 24.92 8.9 47.9 25 -9.9 14.2
11:30 1015 29.97 844 24.92 8.5 47.4 28 -9.1 15.5
11:35 1014 29.94 844 24.92 9.6 49.3 26 -8.9 15.9
11:40 1014 29.94 844 24.92 9.8 49.6 24 -9.7 14.6
11:45 1014 29.94 844 24.92 9.4 48.8 25 -9.7 14.5
11:50 1014 29.94 843 24.89 9.6 49.3 26 -9.1 15.5
11:55 1014 29.94 843 24.89 10.6 51.1 25 -8.5 16.8
12:00 1014 29.94 843 24.89 10.6 51 23 -9.5 14.9
12:05 1014 29.94 843 24.89 10.2 50.4 25 -8.8 16.2
12:10 1014 29.94 843 24.89 10.6 51 25 -8.4 16.8
12:15 1014 29.94 843 24.89 10.5 50.9 25 -8.6 16.5
12:20 1014 29.94 843 24.89 10.4 50.6 26 -8.3 17
12:25 1014 29.94 843 24.89 10.5 51 25 -8.4 16.8
12:30 1013 29.91 843 24.89 10.9 51.6 24 -8.8 16.2
12:35 1013 29.91 843 24.89 11 51.9 24 -8.8 16.1
12:40 1013 29.91 842 24.86 11.2 52.2 22 -9.4 15
12:45 1013 29.91 842 24.86 11.2 52.1 21 -10.2 13.7
12:50 1013 29.91 842 24.86 10.8 51.4 22 -9.9 14.2
12:55 1013 29.91 842 24.86 11.5 52.6 22 -9.8 14.4
13:00 1013 29.91 842 24.86 11.6 52.8 22 -9.6 14.8
13:05 1013 29.91 842 24.86 11.6 52.8 21 -9.9 14.2
13:10 1013 29.91 842 24.86 11.5 52.6 21 -10 14
13:15 1013 29.91 842 24.86 10.3 50.6 22 -10.5 13
13:20 1012 29.88 842 24.86 9.3 48.7 24 -10.1 13.7
13:25 1012 29.88 842 24.86 9.4 49 24 -10.1 13.9
13:30 1012 29.88 841 24.83 10.3 50.5 22 -10.6 12.9
13:35 1012 29.88 841 24.83 10.1 50.1 21 -11.3 11.6
13:40 1012 29.88 841 24.83 10.4 50.7 20 -11.5 11.3
13:45 1012 29.88 841 24.83 10.6 51 20 -11.2 11.8
13:50 1012 29.88 841 24.83 11 51.8 21 -10.6 12.9
13:55 1012 29.88 841 24.83 10.5 50.9 21 -11 12.2
14:00 1012 29.88 841 24.83 10.4 50.6 22 -10.5 13.1
14:05 1012 29.88 841 24.83 10 49.9 23 -10.4 13.3
14:10 1012 29.88 841 24.83 10.2 50.3 22 -10.8 12.5
14:15 1011 29.85 841 24.83 10.4 50.7 22 -10.5 13.1
14:20 1011 29.85 841 24.83 11.2 52.2 19 -11.3 11.7
14:25 1011 29.85 841 24.83 11.4 52.6 20 -11 12.1
14:30 1011 29.85 840 24.81 11.1 51.9 20 -11 12.2
14:35 1011 29.85 840 24.81 11 51.8 20 -11.2 11.8
14:40 1011 29.85 840 24.81 11.1 51.9 20 -11.3 11.6
14:45 1011 29.85 840 24.81 11.2 52.1 19 -11.5 11.3
14:50 1011 29.85 840 24.81 10.9 51.7 19 -11.7 10.9
14:55 1011 29.85 840 24.81 10.8 51.4 20 -11.1 11.9
15:00 1011 29.85 840 24.81 10.7 51.3 21 -10.7 12.8
15:05 1011 29.85 840 24.81 10.7 51.3 23 -9.7 14.5
15:10 1010 29.83 840 24.81 10.7 51.3 21 -10.9 12.4
15:15 1010 29.83 840 24.81 11.1 51.9 20 -10.9 12.5
15:20 1010 29.83 840 24.81 11.2 52.1 22 -9.8 14.4
15:25 1010 29.83 839 24.78 11.1 51.9 23 -9.3 15.3
15:30 1010 29.83 839 24.78 11 51.8 22 -10 14
15:35 1010 29.83 839 24.78 11.1 51.9 22 -9.7 14.6
15:40 1010 29.83 839 24.78 11.1 51.9 23 -9.5 14.9
15:45 1010 29.83 839 24.78 11 51.7 22 -9.7 14.5
15:50 1010 29.83 839 24.78 11 51.9 23 -9.4 15.1
15:55 1010 29.83 839 24.78 11 51.8 24 -9 15.7
16:00 1010 29.83 839 24.78 10.9 51.6 22 -10 14
16:05 1010 29.83 839 24.78 10.8 51.4 22 -9.9 14.1
16:10 1009 29.8 839 24.78 10.7 51.2 23 -9.8 14.3
16:15 1009 29.8 839 24.78 10.6 51.1 23 -9.4 15.1
16:20 1009 29.8 838 24.75 10.5 50.9 24 -9.2 15.5
16:25 1009 29.8 838 24.75 10.4 50.8 23 -9.7 14.6
16:30 1009 29.8 838 24.75 10.4 50.7 23 -9.6 14.7
16:35 1009 29.8 838 24.75 10.2 50.3 25 -9.2 15.4
16:40 1009 29.8 838 24.75 10.1 50.2 25 -8.9 16
16:45 1009 29.8 838 24.75 9.9 49.8 28 -7.9 17.8
16:50 1009 29.8 838 24.75 9.5 49.2 27 -8.5 16.6
16:55 1009 29.8 838 24.75 9.6 49.3 27 -8.4 16.9
17:00 1009 29.8 838 24.75 9.7 49.4 27 -8.6 16.5
17:05 1008 29.77 838 24.75 9.7 49.4 26 -8.7 16.3
17:10 1008 29.77 838 24.75 9.7 49.4 26 -9.1 15.6
17:15 1008 29.77 838 24.75 9.4 48.9 26 -9.4 15.1
17:20 1008 29.77 838 24.75 9.4 48.8 25 -9.8 14.4
17:25 1008 29.77 837 24.72 9.4 48.9 25 -9.6 14.6
17:30 1008 29.77 837 24.72 9.2 48.5 26 -9.3 15.3
17:35 1008 29.77 837 24.72 8.9 48 28 -8.6 16.5
17:40 1008 29.77 837 24.72 8.6 47.4 28 -8.9 16
17:45 1008 29.77 837 24.72 8.6 47.4 26 -9.8 14.4
17:50 1008 29.77 837 24.72 8.6 47.5 25 -10.1 13.8
17:55 1008 29.77 837 24.72 8.6 47.4 28 -9 15.8
18:00 1008 29.77 837 24.72 8.4 47.1 28 -9 15.7
18:05 1008 29.77 837 24.72 8.4 47.1 29 -8.4 16.8
18:10 1008 29.77 837 24.72 8.4 47 28 -9 15.8
18:15 1008 29.77 837 24.72 8.5 47.3 27 -9.3 15.2
18:20 1008 29.77 837 24.72 8.6 47.4 28 -9 15.9
18:25 1008 29.77 837 24.72 8.5 47.3 28 -9.1 15.6
18:30 1008 29.77 837 24.72 8.5 47.2 28 -9.1 15.5
18:35 1008 29.77 837 24.72 8.4 47.1 28 -8.9 16
18:40 1008 29.77 837 24.72 8.3 47 28 -9.1 15.6
18:45 1007 29.74 837 24.72 8.3 47 27 -9.6 14.6
18:50 1007 29.74 837 24.72 8.4 47 28 -9 15.8
18:55 1007 29.74 837 24.72 8.2 46.8 28 -9.1 15.7
19:00 1007 29.74 837 24.72 8.3 46.9 27 -9.5 14.9
19:05 1007 29.74 836 24.69 8.2 46.7 30 -8.4 16.8
19:10 1007 29.74 836 24.69 8.1 46.5 29 -8.8 16.1
19:15 1007 29.74 836 24.69 7.9 46.3 30 -8.6 16.5
19:20 1007 29.74 836 24.69 7.9 46.3 30 -8.4 16.9
19:25 1007 29.74 836 24.69 7.9 46.2 29 -9.3 15.3
19:30 1007 29.74 836 24.69 8 46.4 30 -8.6 16.6
19:35 1007 29.74 836 24.69 7.9 46.3 29 -8.8 16.1
19:40 1007 29.74 836 24.69 7.9 46.2 31 -8.3 17.1
19:45 1007 29.74 836 24.69 7.5 45.6 33 -7.7 18.2
19:50 1007 29.74 836 24.69 7.2 45 34 -7.8 18
19:55 1007 29.74 836 24.69 7.3 45.1 34 -7.7 18.2
20:00 1007 29.74 836 24.69 7.3 45.1 35 -7.3 18.9
20:05 1007 29.74 836 24.69 7.1 44.9 37 -6.6 20.1
20:10 1007 29.74 836 24.69 6.9 44.5 36 -7 19.4
20:15 1007 29.74 836 24.69 6.9 44.5 38 -6.4 20.4
20:20 1007 29.74 836 24.69 6.8 44.2 37 -6.8 19.8
20:25 1007 29.74 836 24.69 6.8 44.3 37 -7 19.4
20:30 1007 29.74 836 24.69 6.9 44.5 36 -7.1 19.2
20:35 1007 29.74 836 24.69 6.9 44.4 37 -6.7 19.9
20:40 1007 29.74 836 24.69 6.8 44.2 39 -6.3 20.7
20:45 1007 29.74 836 24.69 6.6 43.8 40 -6.2 20.8
20:50 1007 29.74 837 24.72 6.6 43.9 39 -6.5 20.3
20:55 1007 29.74 837 24.72 6.7 44.1 39 -6.1 20.9
21:00 1007 29.74 837 24.72 6.7 44 41 -5.8 21.6
21:05 1007 29.74 837 24.72 6.5 43.7 42 -5.6 21.9
21:10 1007 29.74 837 24.72 6.3 43.4 44 -5.1 22.8
21:15 1007 29.74 837 24.72 6 42.9 45 -4.9 23.3
21:20 1007 29.74 837 24.72 6 42.8 46 -4.9 23.2
21:25 1007 29.74 837 24.72 6 42.7 46 -4.7 23.5
21:30 1008 29.77 837 24.72 5.8 42.4 47 -4.5 23.9
21:35 1007 29.74 837 24.72 5.6 42.1 48 -4.4 24.1
21:40 1007 29.74 837 24.72 5.6 42.1 47 -4.8 23.4
21:45 1007 29.74 837 24.72 5.7 42.3 48 -4.5 23.8
21:50 1007 29.74 837 24.72 5.6 42.1 48 -4.5 24
21:55 1008 29.77 837 24.72 5.6 42.1 50 -4.1 24.6
22:00 1008 29.77 837 24.72 5.4 41.7 51 -4 24.8
22:05 1008 29.77 837 24.72 5.3 41.5 51 -4.1 24.7
22:10 1008 29.77 837 24.72 5.3 41.5 51 -4 24.9
22:15 1008 29.77 837 24.72 5.3 41.5 51 -4.1 24.6
22:20 1007 29.74 837 24.72 5.3 41.6 51 -4 24.7
22:25 1007 29.74 837 24.72 5.3 41.5 52 -3.8 25.1
22:30 1007 29.74 837 24.72 5.1 41.2 53 -3.7 25.3
22:35 1007 29.74 837 24.72 5.1 41.2 54 -3.5 25.6
22:40 1007 29.74 836 24.69 5 41.1 54 -3.6 25.6
22:45 1007 29.74 836 24.69 5 41.1 54 -3.6 25.6
22:50 1007 29.74 836 24.69 5.1 41.2 53 -3.8 25.2
22:55 1007 29.74 836 24.69 5.1 41.2 53 -3.6 25.6
23:00 1007 29.74 836 24.69 4.9 40.9 55 -3.3 26.1
23:05 1007 29.74 836 24.69 4.7 40.5 57 -3 26.6
23:10 1007 29.74 836 24.69 4.6 40.2 59 -2.8 26.9
23:15 1007 29.74 836 24.69 4.5 40.1 60 -2.7 27.2
23:20 1007 29.74 836 24.69 4.4 40 61 -2.5 27.4
23:25 1007 29.74 836 24.69 4.4 39.9 61 -2.4 27.7
23:30 1007 29.74 836 24.69 4.3 39.8 62 -2.3 27.9
23:35 1007 29.74 836 24.69 4.3 39.8 62 -2.2 28
23:40 1007 29.74 836 24.69 4.4 39.9 62 -2.2 28
23:45 1007 29.74 836 24.69 4.4 39.9 63 -2.1 28.3
23:50 1007 29.74 836 24.69 4.3 39.7 64 -2 28.5
23:55 1007 29.74 836 24.69 4.1 39.5 65 -1.9 28.6
24:00 1007 29.74 836 24.69 4 39.2 65 -1.9 28.6